createdAt,value
2019-03-03T00:00:53.720Z,7.01
2019-03-03T00:03:49.286Z,7.00
2019-03-03T00:06:46.056Z,6.99
2019-03-03T00:09:41.771Z,6.97
2019-03-03T00:12:38.296Z,6.96
2019-03-03T00:15:34.340Z,6.95
2019-03-03T00:18:31.130Z,6.94
2019-03-03T00:21:27.527Z,6.95
2019-03-03T00:24:24.256Z,6.95
2019-03-03T00:27:19.972Z,6.95
2019-03-03T00:30:17.824Z,6.94
2019-03-03T00:33:13.351Z,6.97
2019-03-03T00:36:10.013Z,7.00
2019-03-03T00:39:16.269Z,7.01
2019-03-03T00:42:27.729Z,7.01
2019-03-03T00:45:39.321Z,7.03
2019-03-03T00:49:00.185Z,7.04
2019-03-03T00:52:14.255Z,7.04
2019-03-03T00:55:38.512Z,7.05
2019-03-03T00:58:55.396Z,7.02
2019-03-03T01:02:09.541Z,7.01
2019-03-03T01:05:13.163Z,7.00
2019-03-03T01:08:21.461Z,7.01
2019-03-03T01:11:37.741Z,7.01
2019-03-03T01:14:59.615Z,7.01
2019-03-03T01:18:06.481Z,7.03
2019-03-03T01:21:14.619Z,7.05
2019-03-03T01:24:29.206Z,7.05
2019-03-03T01:27:25.692Z,7.08
2019-03-03T01:30:22.704Z,7.08
2019-03-03T01:33:19.245Z,7.11
2019-03-03T01:36:14.693Z,7.13
2019-03-03T01:39:11.489Z,7.14
2019-03-03T01:42:07.686Z,7.15
2019-03-03T01:45:03.409Z,7.17
2019-03-03T01:48:00.987Z,7.18
2019-03-03T01:50:56.759Z,7.16
2019-03-03T01:53:54.039Z,7.16
2019-03-03T01:56:49.531Z,7.14
2019-03-03T01:59:46.073Z,7.15
2019-03-03T02:02:42.758Z,7.14
2019-03-03T02:05:38.964Z,7.15
2019-03-03T02:08:33.891Z,7.15
2019-03-03T02:11:31.378Z,7.16
2019-03-03T02:14:27.083Z,7.17
2019-03-03T02:17:23.657Z,7.18
2019-03-03T02:20:20.259Z,7.18
2019-03-03T02:23:17.351Z,7.17
2019-03-03T02:26:12.138Z,7.18
2019-03-03T02:29:08.232Z,7.16
2019-03-03T02:32:04.706Z,7.16
2019-03-03T02:35:00.502Z,7.16
2019-03-03T02:37:57.381Z,7.16
2019-03-03T02:40:53.098Z,7.15
2019-03-03T02:43:54.341Z,7.15
2019-03-03T02:46:49.788Z,7.16
2019-03-03T02:49:47.659Z,7.16
2019-03-03T02:52:43.186Z,7.15
2019-03-03T02:55:39.676Z,7.15
2019-03-03T02:58:34.385Z,7.15
2019-03-03T03:01:36.959Z,7.17
2019-03-03T03:04:32.201Z,7.16
2019-03-03T03:07:43.147Z,7.18
2019-03-03T03:11:00.095Z,7.19
2019-03-03T03:14:08.073Z,7.20
2019-03-03T03:17:19.147Z,7.22
2019-03-03T03:20:24.244Z,7.22
2019-03-03T03:23:36.334Z,7.21
2019-03-03T03:26:58.546Z,7.21
2019-03-03T03:30:08.517Z,7.22
2019-03-03T03:33:25.998Z,7.23
2019-03-03T03:36:36.787Z,7.23
2019-03-03T03:39:46.130Z,7.23
2019-03-03T03:42:47.507Z,7.22
2019-03-03T03:45:56.075Z,7.23
2019-03-03T03:49:09.277Z,7.20
2019-03-03T03:52:30.063Z,7.18
2019-03-03T03:55:39.554Z,7.18
2019-03-03T03:58:42.290Z,7.16
2019-03-03T04:01:49.708Z,7.16
2019-03-03T04:05:01.688Z,7.14
2019-03-03T04:08:14.969Z,7.13
2019-03-03T04:11:22.863Z,7.12
2019-03-03T04:14:28.876Z,7.12
2019-03-03T04:17:37.934Z,7.12
2019-03-03T04:20:44.997Z,7.13
2019-03-03T04:23:56.157Z,7.14
2019-03-03T04:27:13.104Z,7.16
2019-03-03T04:30:22.061Z,7.18
2019-03-03T04:33:36.189Z,7.19
2019-03-03T04:36:49.437Z,7.20
2019-03-03T04:39:52.085Z,7.20
2019-03-03T04:42:55.543Z,7.20
2019-03-03T04:46:06.597Z,7.17
2019-03-03T04:49:15.449Z,7.17
2019-03-03T04:52:23.255Z,7.15
2019-03-03T04:55:35.585Z,7.16
2019-03-03T04:58:38.246Z,7.17
2019-03-03T05:02:00.286Z,7.17
2019-03-03T05:05:14.876Z,7.18
2019-03-03T05:08:24.012Z,7.20
2019-03-03T05:11:40.727Z,7.18
2019-03-03T05:14:43.121Z,7.19
2019-03-03T05:17:50.508Z,7.18
2019-03-03T05:20:56.286Z,7.16
2019-03-03T05:23:51.804Z,7.18
2019-03-03T05:26:49.543Z,7.19
2019-03-03T05:29:46.047Z,7.19
2019-03-03T05:32:41.823Z,7.17
2019-03-03T05:35:38.663Z,7.18
2019-03-03T05:38:34.003Z,7.18
2019-03-03T05:41:30.489Z,7.17
2019-03-03T05:44:25.924Z,7.16
2019-03-03T05:47:22.621Z,7.16
2019-03-03T05:50:17.968Z,7.16
2019-03-03T05:53:14.527Z,7.17
2019-03-03T05:56:11.044Z,7.19
2019-03-03T05:59:06.843Z,7.19
2019-03-03T06:02:03.183Z,7.19
2019-03-03T06:04:58.602Z,7.21
2019-03-03T06:07:56.277Z,7.24
2019-03-03T06:10:51.817Z,7.25
2019-03-03T06:13:48.233Z,7.27
2019-03-03T06:16:45.015Z,7.30
2019-03-03T06:19:41.500Z,7.31
2019-03-03T06:22:37.021Z,7.32
2019-03-03T06:25:34.957Z,7.34
2019-03-03T06:28:30.460Z,7.38
2019-03-03T06:31:26.972Z,7.41
2019-03-03T06:34:23.485Z,7.44
2019-03-03T06:37:20.227Z,7.46
2019-03-03T06:40:17.062Z,7.47
2019-03-03T06:43:12.691Z,7.46
2019-03-03T06:46:09.290Z,7.45
2019-03-03T06:49:04.913Z,7.46
2019-03-03T06:52:01.472Z,7.51
2019-03-03T06:54:58.550Z,7.55
2019-03-03T06:57:57.397Z,7.59
2019-03-03T07:00:53.139Z,7.64
2019-03-03T07:03:49.693Z,7.69
2019-03-03T07:06:46.626Z,7.72
2019-03-03T07:09:41.473Z,7.76
2019-03-03T07:12:37.537Z,7.84
2019-03-03T07:15:34.065Z,7.95
2019-03-03T07:18:27.324Z,8.02
2019-03-03T07:21:24.117Z,8.10
2019-03-03T07:24:20.685Z,8.17
2019-03-03T07:27:17.382Z,8.21
2019-03-03T07:30:14.224Z,8.23
2019-03-03T07:33:24.519Z,8.28
2019-03-03T07:36:21.221Z,8.32
2019-03-03T07:39:16.649Z,8.36
2019-03-03T07:42:13.163Z,8.42
2019-03-03T07:45:08.704Z,8.46
2019-03-03T07:48:06.239Z,8.52
2019-03-03T07:51:01.708Z,8.56
2019-03-03T07:53:58.509Z,8.67
2019-03-03T07:56:56.387Z,8.77
2019-03-03T07:59:53.099Z,8.90
2019-03-03T08:02:51.975Z,8.99
2019-03-03T08:05:47.752Z,8.96
2019-03-03T08:08:45.886Z,8.94
2019-03-03T08:11:40.328Z,8.94
2019-03-03T08:14:36.979Z,9.09
2019-03-03T08:17:33.434Z,9.09
2019-03-03T08:20:31.136Z,9.24
2019-03-03T08:23:26.344Z,9.30
2019-03-03T08:26:23.100Z,9.35
2019-03-03T08:29:18.641Z,9.34
2019-03-03T08:32:14.642Z,9.32
2019-03-03T08:35:10.461Z,9.25
2019-03-03T08:38:08.589Z,9.21
2019-03-03T08:41:04.228Z,9.22
2019-03-03T08:44:16.585Z,9.22
2019-03-03T08:47:28.951Z,9.22
2019-03-03T08:50:50.100Z,9.29
2019-03-03T08:53:57.540Z,9.35
2019-03-03T08:57:05.257Z,9.39
2019-03-03T09:00:22.558Z,9.42
2019-03-03T09:03:35.170Z,9.54
2019-03-03T09:06:43.320Z,9.59
2019-03-03T09:10:00.274Z,9.66
2019-03-03T09:13:04.746Z,9.69
2019-03-03T09:16:17.684Z,9.78
2019-03-03T09:19:29.901Z,9.92
2019-03-03T09:22:33.258Z,10.07
2019-03-03T09:25:40.141Z,10.17
2019-03-03T09:28:47.404Z,10.22
2019-03-03T09:32:03.960Z,10.24
2019-03-03T09:35:13.256Z,10.33
2019-03-03T09:38:30.932Z,10.38
2019-03-03T09:42:00.570Z,10.29
2019-03-03T09:45:12.487Z,10.22
2019-03-03T09:48:33.381Z,10.25
2019-03-03T09:51:43.954Z,10.46
2019-03-03T09:54:56.729Z,10.63
2019-03-03T09:58:06.984Z,10.78
2019-03-03T10:01:32.459Z,10.99
2019-03-03T10:04:41.695Z,11.15
2019-03-03T10:07:52.423Z,11.33
2019-03-03T10:10:55.714Z,11.51
2019-03-03T10:13:58.220Z,11.66
2019-03-03T10:17:14.779Z,11.80
2019-03-03T10:20:39.381Z,11.90
2019-03-03T10:24:02.704Z,11.92
2019-03-03T10:27:10.774Z,11.82
2019-03-03T10:30:31.495Z,11.78
2019-03-03T10:33:41.820Z,11.85
2019-03-03T10:36:57.217Z,11.85
2019-03-03T10:40:07.053Z,11.92
2019-03-03T10:43:25.689Z,12.07
2019-03-03T10:46:36.211Z,12.09
2019-03-03T10:49:58.920Z,12.23
2019-03-03T10:53:07.976Z,12.36
2019-03-03T10:56:21.492Z,12.41
2019-03-03T10:59:32.586Z,12.52
2019-03-03T11:02:38.378Z,12.67
2019-03-03T11:06:00.813Z,12.73
2019-03-03T11:09:06.640Z,12.69
2019-03-03T11:12:15.895Z,12.80
2019-03-03T11:15:24.809Z,12.87
2019-03-03T11:18:38.086Z,12.80
2019-03-03T11:21:59.998Z,12.82
2019-03-03T11:25:18.737Z,12.84
2019-03-03T11:28:39.971Z,12.88
2019-03-03T11:31:48.465Z,12.92
2019-03-03T11:35:02.008Z,12.94
2019-03-03T11:38:18.942Z,12.94
2019-03-03T11:41:25.578Z,12.90
2019-03-03T11:44:35.746Z,12.91
2019-03-03T11:47:44.935Z,12.91
2019-03-03T11:51:01.795Z,12.95
2019-03-03T11:54:13.559Z,12.92
2019-03-03T11:57:30.699Z,12.97
2019-03-03T12:00:56.152Z,13.01
2019-03-03T12:04:08.605Z,13.12
2019-03-03T12:07:13.411Z,13.15
2019-03-03T12:10:34.188Z,13.11
2019-03-03T12:13:38.624Z,13.13
2019-03-03T12:16:47.847Z,13.14
2019-03-03T12:19:53.905Z,13.22
2019-03-03T12:22:59.200Z,13.21
2019-03-03T12:26:08.043Z,13.27
2019-03-03T12:29:19.899Z,13.39
2019-03-03T12:32:28.291Z,13.45
2019-03-03T12:35:44.541Z,13.46
2019-03-03T12:38:54.383Z,13.50
2019-03-03T12:42:04.349Z,13.58
2019-03-03T12:45:12.041Z,13.65
2019-03-03T12:48:32.501Z,13.67
2019-03-03T12:51:42.242Z,13.56
2019-03-03T12:55:00.566Z,13.56
2019-03-03T12:58:27.440Z,13.70
2019-03-03T13:01:36.512Z,13.73
2019-03-03T13:04:40.609Z,13.76
2019-03-03T13:07:48.644Z,13.71
2019-03-03T13:10:52.611Z,13.64
2019-03-03T13:14:00.246Z,13.56
2019-03-03T13:17:10.657Z,13.50
2019-03-03T13:20:19.857Z,13.47
2019-03-03T13:23:29.600Z,13.52
2019-03-03T13:26:44.022Z,13.63
2019-03-03T13:29:52.742Z,13.74
2019-03-03T13:33:08.038Z,13.64
2019-03-03T13:36:17.328Z,13.59
2019-03-03T13:39:33.858Z,13.58
2019-03-03T13:42:42.756Z,13.65
2019-03-03T13:45:38.270Z,13.60
2019-03-03T13:48:35.136Z,13.61
2019-03-03T13:51:30.641Z,13.67
2019-03-03T13:54:27.352Z,13.80
2019-03-03T13:57:23.003Z,13.95
2019-03-03T14:00:19.228Z,13.85
2019-03-03T14:03:16.275Z,13.80
2019-03-03T14:06:14.208Z,13.81
2019-03-03T14:09:10.929Z,13.80
2019-03-03T14:12:08.553Z,13.82
2019-03-03T14:15:06.130Z,13.80
2019-03-03T14:18:02.637Z,13.79
2019-03-03T14:20:59.357Z,13.75
2019-03-03T14:23:55.524Z,13.65
2019-03-03T14:26:52.147Z,13.60
2019-03-03T14:29:47.623Z,13.60
2019-03-03T14:32:45.227Z,13.57
2019-03-03T14:35:40.874Z,13.58
2019-03-03T14:38:37.319Z,13.69
2019-03-03T14:41:32.923Z,13.82
2019-03-03T14:44:29.472Z,13.90
2019-03-03T14:47:25.124Z,14.01
2019-03-03T14:50:21.565Z,13.95
2019-03-03T14:53:17.491Z,13.87
2019-03-03T14:56:14.063Z,13.76
2019-03-03T14:59:10.869Z,13.71
2019-03-03T15:02:06.615Z,13.66
2019-03-03T15:05:03.185Z,13.58
2019-03-03T15:07:58.753Z,13.53
2019-03-03T15:10:55.662Z,13.52
2019-03-03T15:13:52.525Z,13.47
2019-03-03T15:16:50.127Z,13.38
2019-03-03T15:19:44.881Z,13.29
2019-03-03T15:22:41.412Z,13.24
2019-03-03T15:25:36.949Z,13.15
2019-03-03T15:28:33.404Z,13.10
2019-03-03T15:31:37.708Z,13.04
2019-03-03T15:34:32.338Z,13.00
2019-03-03T15:37:27.751Z,12.97
2019-03-03T15:40:24.271Z,12.97
2019-03-03T15:43:19.956Z,12.93
2019-03-03T15:46:23.391Z,12.91
2019-03-03T15:49:19.085Z,12.87
2019-03-03T15:52:14.126Z,12.79
2019-03-03T15:55:10.776Z,12.75
2019-03-03T15:58:06.460Z,12.69
2019-03-03T16:01:04.227Z,12.66
2019-03-03T16:04:00.471Z,12.62
2019-03-03T16:06:56.899Z,12.55
2019-03-03T16:09:52.598Z,12.53
2019-03-03T16:12:49.296Z,12.48
2019-03-03T16:15:46.476Z,12.45
2019-03-03T16:18:43.148Z,12.41
2019-03-03T16:21:38.652Z,12.37
2019-03-03T16:24:36.414Z,12.30
2019-03-03T16:27:31.948Z,12.24
2019-03-03T16:30:29.678Z,12.16
2019-03-03T16:33:25.410Z,12.13
2019-03-03T16:36:22.025Z,12.12
2019-03-03T16:39:18.728Z,12.06
2019-03-03T16:42:14.429Z,12.00
2019-03-03T16:45:11.976Z,11.95
2019-03-03T16:48:07.609Z,11.91
2019-03-03T16:51:04.045Z,11.88
2019-03-03T16:53:59.529Z,11.82
2019-03-03T16:56:56.613Z,11.76
2019-03-03T16:59:53.378Z,11.70
2019-03-03T17:02:49.082Z,11.64
2019-03-03T17:05:46.280Z,11.58
2019-03-03T17:08:42.221Z,11.52
2019-03-03T17:11:38.736Z,11.48
2019-03-03T17:14:36.635Z,11.42
2019-03-03T17:17:34.466Z,11.35
2019-03-03T17:20:30.723Z,11.30
2019-03-03T17:23:27.200Z,11.26
2019-03-03T17:26:24.090Z,11.21
2019-03-03T17:29:19.949Z,11.18
2019-03-03T17:32:15.888Z,11.14
2019-03-03T17:35:13.419Z,11.15
2019-03-03T17:38:09.225Z,11.14
2019-03-03T17:41:07.009Z,11.08
2019-03-03T17:44:03.491Z,11.06
2019-03-03T17:46:58.787Z,11.02
2019-03-03T17:49:55.378Z,11.02
2019-03-03T17:52:50.122Z,11.00
2019-03-03T17:55:47.278Z,11.00
2019-03-03T17:58:42.790Z,10.99
2019-03-03T18:01:39.380Z,10.97
2019-03-03T18:04:35.340Z,10.95
2019-03-03T18:07:32.157Z,10.92
2019-03-03T18:10:27.440Z,10.92
2019-03-03T18:13:23.541Z,10.89
2019-03-03T18:16:22.118Z,10.86
2019-03-03T18:19:18.703Z,10.83
2019-03-03T18:22:15.242Z,10.80
2019-03-03T18:25:10.953Z,10.78
2019-03-03T18:28:07.717Z,10.76
2019-03-03T18:31:03.608Z,10.72
2019-03-03T18:34:00.318Z,10.70
2019-03-03T18:36:56.988Z,10.65
2019-03-03T18:39:53.934Z,10.62
2019-03-03T18:42:49.480Z,10.59
2019-03-03T18:45:49.093Z,10.57
2019-03-03T18:48:44.595Z,10.54
2019-03-03T18:51:41.355Z,10.52
2019-03-03T18:54:38.889Z,10.50
2019-03-03T18:57:34.562Z,10.47
2019-03-03T19:00:33.347Z,10.44
2019-03-03T19:03:29.747Z,10.39
2019-03-03T19:06:26.769Z,10.38
2019-03-03T19:09:27.533Z,10.36
2019-03-03T19:12:25.246Z,10.34
2019-03-03T19:15:20.911Z,10.32
2019-03-03T19:18:18.872Z,10.31
2019-03-03T19:21:14.480Z,10.30
2019-03-03T19:24:11.081Z,10.28
2019-03-03T19:27:07.619Z,10.24
2019-03-03T19:30:04.438Z,10.22
2019-03-03T19:32:59.052Z,10.19
2019-03-03T19:35:55.134Z,10.19
2019-03-03T19:38:51.883Z,10.17
2019-03-03T19:41:47.671Z,10.16
2019-03-03T19:44:44.251Z,10.15
2019-03-03T19:47:39.865Z,10.12
2019-03-03T19:50:36.159Z,10.06
2019-03-03T19:53:33.053Z,10.00
2019-03-03T19:56:29.704Z,9.96
2019-03-03T19:59:24.432Z,9.93
2019-03-03T20:02:24.014Z,9.89
2019-03-03T20:05:19.769Z,9.87
2019-03-03T20:08:17.417Z,9.84
2019-03-03T20:11:13.135Z,9.82
2019-03-03T20:14:09.812Z,9.77
2019-03-03T20:17:06.708Z,9.72
2019-03-03T20:20:04.351Z,9.66
2019-03-03T20:23:00.858Z,9.60
2019-03-03T20:25:58.187Z,9.54
2019-03-03T20:28:56.157Z,9.47
2019-03-03T20:31:51.894Z,9.41
2019-03-03T20:34:48.570Z,9.35
2019-03-03T20:37:45.120Z,9.30
2019-03-03T20:40:41.762Z,9.27
2019-03-03T20:43:37.106Z,9.22
2019-03-03T20:46:33.969Z,9.17
2019-03-03T20:49:29.920Z,9.13
2019-03-03T20:52:28.777Z,9.12
2019-03-03T20:55:22.350Z,9.07
2019-03-03T20:58:19.927Z,9.03
2019-03-03T21:01:15.285Z,9.00
2019-03-03T21:04:12.093Z,8.97
2019-03-03T21:07:08.305Z,8.92
2019-03-03T21:10:04.181Z,8.92
2019-03-03T21:13:00.200Z,8.94
2019-03-03T21:15:55.344Z,8.86
2019-03-03T21:18:53.014Z,8.89
2019-03-03T21:21:49.552Z,8.88
2019-03-03T21:24:49.321Z,8.86
2019-03-03T21:27:45.678Z,8.86
2019-03-03T21:30:43.401Z,8.85
2019-03-03T21:33:39.985Z,8.87
2019-03-03T21:36:35.722Z,8.88
2019-03-03T21:39:33.100Z,8.87
2019-03-03T21:42:28.367Z,8.85
2019-03-03T21:45:25.419Z,8.82
2019-03-03T21:48:20.995Z,8.80
2019-03-03T21:51:18.751Z,8.79
2019-03-03T21:54:15.265Z,8.76
2019-03-03T21:57:11.799Z,8.72
2019-03-03T22:00:08.352Z,8.73
2019-03-03T22:03:05.021Z,8.71
2019-03-03T22:06:01.280Z,8.71
2019-03-03T22:08:57.725Z,8.70
2019-03-03T22:11:54.409Z,8.68
2019-03-03T22:14:49.939Z,8.65
2019-03-03T22:17:46.630Z,8.64
2019-03-03T22:20:41.619Z,8.61
2019-03-03T22:23:37.949Z,8.49
2019-03-03T22:26:36.511Z,8.62
2019-03-03T22:29:32.746Z,8.62
2019-03-03T22:32:30.023Z,8.63
2019-03-03T22:35:26.477Z,8.63
2019-03-03T22:38:23.164Z,8.62
2019-03-03T22:41:18.931Z,8.63
2019-03-03T22:44:16.725Z,8.62
2019-03-03T22:47:12.169Z,8.63
2019-03-03T22:50:09.934Z,8.65
2019-03-03T22:53:05.384Z,8.66
2019-03-03T22:56:01.304Z,8.68
2019-03-03T22:58:56.057Z,8.70
2019-03-03T23:01:56.002Z,8.67
2019-03-03T23:05:15.001Z,8.67
2019-03-03T23:08:20.191Z,8.66
2019-03-03T23:11:46.111Z,8.66
2019-03-03T23:15:17.228Z,8.65
2019-03-03T23:18:28.316Z,8.62
2019-03-03T23:21:49.191Z,8.58
2019-03-03T23:25:29.453Z,8.56
2019-03-03T23:28:27.375Z,8.55
2019-03-03T23:31:23.852Z,8.52
2019-03-03T23:34:20.357Z,8.47
2019-03-03T23:37:16.090Z,8.44
2019-03-03T23:40:12.022Z,8.43
2019-03-03T23:43:07.710Z,8.41
2019-03-03T23:46:03.964Z,8.40
2019-03-03T23:49:00.261Z,8.41
2019-03-03T23:51:56.852Z,8.42
2019-03-03T23:54:52.514Z,8.42
